createdAt,value
2023-05-14T00:01:23.667Z,60.75
2023-05-14T00:06:25.279Z,60.30
2023-05-14T00:11:26.736Z,60.75
2023-05-14T00:16:28.203Z,61.20
2023-05-14T00:21:29.668Z,63.20
2023-05-14T00:26:31.116Z,60.60
2023-05-14T00:31:32.675Z,60.60
2023-05-14T00:36:34.186Z,60.75
2023-05-14T00:41:35.728Z,61.03
2023-05-14T00:46:37.294Z,62.51
2023-05-14T00:51:41.432Z,62.07
2023-05-14T00:56:45.320Z,61.53
2023-05-14T01:01:46.797Z,61.33
2023-05-14T01:07:09.471Z,62.90
2023-05-14T01:12:34.598Z,63.72
2023-05-14T01:17:42.671Z,61.22
2023-05-14T01:22:44.189Z,63.29
2023-05-14T01:28:05.844Z,61.65
2023-05-14T01:33:11.160Z,63.83
2023-05-14T01:38:14.974Z,61.69
2023-05-14T01:43:17.101Z,61.64
2023-05-14T01:48:18.913Z,61.20
2023-05-14T01:53:20.639Z,62.50
2023-05-14T01:58:22.223Z,67.39
2023-05-14T02:03:23.681Z,67.81
2023-05-14T02:08:25.282Z,63.74
2023-05-14T02:13:26.855Z,64.88
2023-05-14T02:18:28.275Z,63.67
2023-05-14T02:23:40.479Z,64.04
2023-05-14T02:28:42.838Z,63.87
2023-05-14T02:33:44.363Z,63.04
2023-05-14T02:38:45.884Z,62.63
2023-05-14T02:43:47.342Z,62.61
2023-05-14T02:48:49.144Z,62.42
2023-05-14T02:53:50.607Z,62.75
2023-05-14T02:58:52.188Z,62.70
2023-05-14T03:03:53.639Z,63.00
2023-05-14T03:08:55.121Z,63.25
2023-05-14T03:13:56.667Z,63.51
2023-05-14T03:18:58.163Z,63.23
2023-05-14T03:23:59.661Z,63.07
2023-05-14T03:29:02.101Z,62.70
2023-05-14T03:34:03.637Z,62.86
2023-05-14T03:39:06.964Z,63.07
2023-05-14T03:44:10.327Z,63.08
2023-05-14T03:49:11.914Z,63.23
2023-05-14T03:54:13.569Z,62.82
2023-05-14T03:59:15.102Z,63.83
2023-05-14T04:04:16.603Z,63.74
2023-05-14T04:09:18.069Z,64.01
2023-05-14T04:14:19.535Z,63.69
2023-05-14T04:19:21.006Z,63.87
2023-05-14T04:24:22.499Z,64.32
2023-05-14T04:29:23.925Z,64.33
2023-05-14T04:34:26.113Z,64.31
2023-05-14T04:39:27.534Z,64.45
2023-05-14T04:44:28.970Z,65.02
2023-05-14T04:49:30.924Z,65.50
2023-05-14T04:54:32.527Z,66.71
2023-05-14T04:59:34.028Z,68.92
2023-05-14T05:04:35.457Z,66.76
2023-05-14T05:09:36.879Z,65.40
2023-05-14T05:14:38.337Z,66.52
2023-05-14T05:19:43.875Z,67.09
2023-05-14T05:24:46.469Z,71.06
2023-05-14T05:29:48.473Z,71.82
2023-05-14T05:34:51.842Z,72.76
2023-05-14T05:39:53.961Z,70.75
2023-05-14T05:44:56.238Z,68.35
2023-05-14T05:49:57.734Z,69.16
2023-05-14T05:54:59.160Z,66.50
2023-05-14T06:00:01.036Z,67.26
2023-05-14T06:05:02.522Z,67.46
2023-05-14T06:10:04.751Z,65.80
2023-05-14T06:15:06.929Z,69.33
2023-05-14T06:20:08.969Z,66.68
2023-05-14T06:25:10.892Z,64.27
2023-05-14T06:30:13.019Z,66.66
2023-05-14T06:35:14.544Z,63.55
2023-05-14T06:40:16.103Z,64.74
2023-05-14T06:45:17.622Z,63.11
2023-05-14T06:50:19.352Z,64.49
2023-05-14T06:55:20.883Z,65.64
2023-05-14T07:00:22.783Z,64.62
2023-05-14T07:05:25.075Z,65.30
2023-05-14T07:10:26.723Z,64.76
2023-05-14T07:15:28.262Z,64.31
2023-05-14T07:20:29.708Z,62.99
2023-05-14T07:25:32.617Z,64.38
2023-05-14T07:30:34.060Z,62.24
2023-05-14T07:35:35.558Z,63.58
2023-05-14T07:40:36.990Z,62.02
2023-05-14T07:45:41.393Z,62.58
2023-05-14T07:50:43.001Z,61.49
2023-05-14T07:55:45.333Z,60.53
2023-05-14T08:00:46.794Z,60.68
2023-05-14T08:06:34.053Z,60.39
2023-05-14T08:11:36.516Z,57.67
2023-05-14T08:16:38.761Z,58.01
2023-05-14T08:21:40.260Z,62.96
2023-05-14T08:26:41.910Z,60.88
2023-05-14T08:31:43.491Z,61.30
2023-05-14T08:36:44.956Z,61.18
2023-05-14T08:41:46.571Z,53.55
2023-05-14T08:46:49.752Z,55.38
2023-05-14T08:51:51.343Z,52.99
2023-05-14T08:56:53.524Z,57.20
2023-05-14T09:01:56.649Z,55.32
2023-05-14T09:07:01.193Z,54.62
2023-05-14T09:12:02.772Z,52.65
2023-05-14T09:17:04.317Z,53.33
2023-05-14T09:22:09.289Z,50.07
2023-05-14T09:27:22.133Z,52.13
2023-05-14T09:32:23.583Z,58.08
2023-05-14T09:37:26.051Z,53.79
2023-05-14T09:42:27.986Z,56.66
2023-05-14T09:47:29.519Z,52.79
2023-05-14T09:52:31.197Z,56.76
2023-05-14T09:57:33.517Z,45.63
2023-05-14T10:02:41.076Z,64.71
2023-05-14T10:07:47.587Z,52.24
2023-05-14T10:12:53.513Z,48.41
2023-05-14T10:17:58.640Z,55.42
2023-05-14T10:23:01.018Z,45.44
2023-05-14T10:28:03.057Z,51.73
2023-05-14T10:33:16.538Z,50.81
2023-05-14T10:38:21.896Z,47.94
2023-05-14T10:43:26.934Z,56.82
2023-05-14T10:48:28.954Z,47.15
2023-05-14T10:53:35.800Z,53.98
2023-05-14T10:58:39.204Z,52.41
2023-05-14T11:03:46.175Z,56.88
2023-05-14T11:08:50.422Z,46.00
2023-05-14T11:13:53.597Z,53.64
2023-05-14T11:19:05.068Z,57.48
2023-05-14T11:24:07.406Z,44.64
2023-05-14T11:29:10.499Z,48.72
2023-05-14T11:34:11.962Z,56.43
2023-05-14T11:39:19.550Z,46.39
2023-05-14T11:44:21.146Z,49.84
2023-05-14T11:49:24.166Z,53.43
2023-05-14T11:54:27.535Z,53.31
2023-05-14T11:59:31.685Z,46.62
2023-05-14T12:04:33.300Z,60.22
2023-05-14T12:09:39.204Z,55.49
2023-05-14T12:14:42.667Z,42.17
2023-05-14T12:19:46.000Z,41.84
2023-05-14T12:24:58.130Z,49.53
2023-05-14T12:30:19.123Z,56.19
2023-05-14T12:35:22.901Z,46.75
2023-05-14T12:40:25.229Z,52.82
2023-05-14T12:45:26.958Z,40.31
2023-05-14T12:50:28.434Z,45.80
2023-05-14T12:55:29.992Z,52.97
2023-05-14T13:00:31.433Z,40.04
2023-05-14T13:05:33.276Z,50.25
2023-05-14T13:10:34.729Z,51.40
2023-05-14T13:15:36.162Z,42.58
2023-05-14T13:20:37.602Z,42.88
2023-05-14T13:25:39.164Z,53.81
2023-05-14T13:30:40.645Z,49.78
2023-05-14T13:35:42.086Z,43.65
2023-05-14T13:40:43.509Z,50.56
2023-05-14T13:45:44.949Z,52.80
2023-05-14T13:50:46.377Z,44.17
2023-05-14T13:55:49.290Z,45.57
2023-05-14T14:00:51.887Z,48.79
2023-05-14T14:05:53.357Z,51.88
2023-05-14T14:10:55.475Z,49.89
2023-05-14T14:15:57.317Z,55.02
2023-05-14T14:20:58.800Z,48.74
2023-05-14T14:26:07.105Z,44.36
2023-05-14T14:36:09.967Z,47.99
2023-05-14T14:41:11.468Z,52.15
2023-05-14T14:46:13.758Z,51.69
2023-05-14T14:51:15.356Z,53.14
2023-05-14T14:56:16.829Z,54.44
2023-05-14T15:01:18.472Z,53.88
2023-05-14T15:06:19.966Z,53.07
2023-05-14T15:11:21.999Z,52.93
2023-05-14T15:16:23.510Z,54.22
2023-05-14T15:21:25.035Z,51.31
2023-05-14T15:26:26.698Z,53.56
2023-05-14T15:31:28.259Z,54.08
2023-05-14T15:36:29.771Z,54.33
2023-05-14T15:41:31.493Z,52.77
2023-05-14T15:46:33.085Z,53.82
2023-05-14T15:51:34.813Z,54.87
2023-05-14T15:56:36.242Z,56.55
2023-05-14T16:01:37.759Z,57.98
2023-05-14T16:06:41.871Z,53.82
2023-05-14T16:11:43.303Z,55.75
2023-05-14T16:16:44.825Z,54.26
2023-05-14T16:21:46.300Z,58.88
2023-05-14T16:26:47.845Z,59.04
2023-05-14T16:31:49.556Z,56.41
2023-05-14T16:36:51.077Z,54.38
2023-05-14T16:41:52.598Z,54.30
2023-05-14T16:46:54.068Z,53.18
2023-05-14T16:51:55.605Z,53.17
2023-05-14T17:03:28.653Z,53.16
2023-05-14T17:08:33.382Z,58.73
2023-05-14T17:13:34.837Z,56.61
2023-05-14T17:18:36.330Z,57.70
2023-05-14T17:23:37.937Z,57.48
2023-05-14T17:28:39.592Z,56.16
2023-05-14T17:33:41.057Z,55.12
2023-05-14T17:38:42.485Z,56.39
2023-05-14T17:50:40.138Z,54.48
2023-05-14T17:55:43.578Z,54.07
2023-05-14T18:00:45.110Z,53.54
2023-05-14T18:05:46.559Z,53.50
2023-05-14T18:10:47.988Z,54.42
2023-05-14T18:15:51.539Z,55.02
2023-05-14T18:20:53.351Z,55.35
2023-05-14T18:25:54.833Z,54.77
2023-05-14T18:30:56.324Z,55.06
2023-05-14T18:35:57.976Z,56.67
2023-05-14T18:40:59.450Z,55.69
2023-05-14T18:46:00.975Z,54.58
2023-05-14T18:51:02.403Z,54.42
2023-05-14T18:56:04.239Z,53.82
2023-05-14T19:01:05.799Z,55.60
2023-05-14T19:06:07.570Z,55.05
2023-05-14T19:11:09.001Z,54.96
2023-05-14T19:16:11.133Z,55.95
2023-05-14T19:21:14.762Z,55.69
2023-05-14T19:26:16.215Z,56.78
2023-05-14T19:31:17.837Z,56.41
2023-05-14T19:36:20.376Z,57.14
2023-05-14T19:41:21.811Z,56.65
2023-05-14T19:46:23.314Z,57.99
2023-05-14T19:51:25.388Z,59.62
2023-05-14T19:56:27.760Z,58.35
2023-05-14T20:01:29.426Z,57.30
2023-05-14T20:06:32.028Z,57.69
2023-05-14T20:11:33.480Z,59.78
2023-05-14T20:16:34.918Z,58.83
2023-05-14T20:21:36.345Z,57.45
2023-05-14T20:26:37.790Z,57.44
2023-05-14T20:31:39.217Z,58.34
2023-05-14T20:36:41.749Z,58.24
2023-05-14T20:41:45.480Z,58.19
2023-05-14T20:46:47.050Z,58.12
2023-05-14T20:51:48.498Z,57.35
2023-05-14T20:56:50.335Z,57.40
2023-05-14T21:01:51.859Z,58.58
2023-05-14T21:06:53.970Z,58.14
2023-05-14T21:11:55.451Z,58.09
2023-05-14T21:16:56.925Z,57.82
2023-05-14T21:21:58.346Z,58.25
2023-05-14T21:26:59.793Z,58.31
2023-05-14T21:32:01.258Z,58.21
2023-05-14T21:37:03.437Z,57.94
2023-05-14T21:42:05.132Z,59.16
2023-05-14T21:47:07.678Z,62.10
2023-05-14T21:52:09.119Z,59.51
2023-05-14T21:57:10.578Z,60.11
2023-05-14T22:02:12.088Z,59.87
2023-05-14T22:07:13.641Z,59.99
2023-05-14T22:12:15.072Z,59.42
2023-05-14T22:17:16.622Z,60.00
2023-05-14T22:22:18.062Z,60.84
2023-05-14T22:27:19.589Z,62.22
2023-05-14T22:32:21.291Z,61.46
2023-05-14T22:37:22.732Z,61.55
2023-05-14T22:42:24.216Z,60.03
2023-05-14T22:47:26.384Z,60.63
2023-05-14T22:52:27.862Z,61.65
2023-05-14T22:57:29.414Z,60.52
2023-05-14T23:02:30.944Z,61.28
2023-05-14T23:07:32.508Z,65.34
2023-05-14T23:12:34.015Z,65.93
2023-05-14T23:17:35.514Z,64.05
2023-05-14T23:22:37.013Z,64.39
2023-05-14T23:27:38.506Z,63.08
2023-05-14T23:32:39.947Z,61.69
2023-05-14T23:37:46.944Z,61.52
2023-05-14T23:42:48.567Z,63.21
2023-05-14T23:47:50.134Z,63.09
2023-05-14T23:52:52.961Z,63.16
2023-05-14T23:57:54.398Z,66.54
